sensor_id;sensor_type;location;lat;lon;timestamp;pressure;altitude;pressure_sealevel;temperature;humidity
37904;BME280;23738;50.422;18.758;2023-03-15T00:01:18;97360.77;;;3.58;78.96
37904;BME280;23738;50.422;18.758;2023-03-15T00:03:50;97371.88;;;3.54;78.97
37904;BME280;23738;50.422;18.758;2023-03-15T00:06:21;97383.08;;;3.49;78.84
37904;BME280;23738;50.422;18.758;2023-03-15T00:08:51;97399.90;;;3.48;78.93
37904;BME280;23738;50.422;18.758;2023-03-15T00:11:20;97406.23;;;3.47;79.07
37904;BME280;23738;50.422;18.758;2023-03-15T00:13:50;97409.48;;;3.44;79.28
37904;BME280;23738;50.422;18.758;2023-03-15T00:16:19;97412.98;;;3.40;79.08
37904;BME280;23738;50.422;18.758;2023-03-15T00:18:49;97421.88;;;3.37;78.84
37904;BME280;23738;50.422;18.758;2023-03-15T00:21:18;97436.81;;;3.33;78.84
37904;BME280;23738;50.422;18.758;2023-03-15T00:23:47;97435.39;;;3.29;78.85
37904;BME280;23738;50.422;18.758;2023-03-15T00:26:17;97443.73;;;3.23;78.69
37904;BME280;23738;50.422;18.758;2023-03-15T00:28:46;97445.59;;;3.18;78.66
37904;BME280;23738;50.422;18.758;2023-03-15T00:31:17;97465.64;;;3.16;78.56
37904;BME280;23738;50.422;18.758;2023-03-15T00:33:48;97477.63;;;3.15;78.86
37904;BME280;23738;50.422;18.758;2023-03-15T00:36:21;97484.04;;;3.12;78.62
37904;BME280;23738;50.422;18.758;2023-03-15T00:38:53;97494.11;;;3.11;78.77
37904;BME280;23738;50.422;18.758;2023-03-15T00:41:23;97505.80;;;3.12;78.78
37904;BME280;23738;50.422;18.758;2023-03-15T00:43:53;97514.11;;;3.12;78.74
37904;BME280;23738;50.422;18.758;2023-03-15T00:46:22;97511.00;;;3.11;78.56
37904;BME280;23738;50.422;18.758;2023-03-15T00:48:52;97517.33;;;3.11;78.64
37904;BME280;23738;50.422;18.758;2023-03-15T00:51:23;97518.84;;;3.13;78.60
37904;BME280;23738;50.422;18.758;2023-03-15T00:53:53;97516.64;;;3.14;78.67
37904;BME280;23738;50.422;18.758;2023-03-15T00:56:24;97520.59;;;3.15;78.75
37904;BME280;23738;50.422;18.758;2023-03-15T00:58:54;97521.63;;;3.12;78.74
37904;BME280;23738;50.422;18.758;2023-03-15T01:01:25;97529.63;;;3.05;78.55
37904;BME280;23738;50.422;18.758;2023-03-15T01:03:56;97543.80;;;3.03;78.54
37904;BME280;23738;50.422;18.758;2023-03-15T01:06:27;97553.23;;;3.02;78.48
37904;BME280;23738;50.422;18.758;2023-03-15T01:08:57;97564.88;;;3.00;78.68
37904;BME280;23738;50.422;18.758;2023-03-15T01:11:28;97572.73;;;2.98;78.70
37904;BME280;23738;50.422;18.758;2023-03-15T01:13:59;97571.02;;;2.96;78.77
37904;BME280;23738;50.422;18.758;2023-03-15T01:16:31;97575.54;;;2.95;78.66
37904;BME280;23738;50.422;18.758;2023-03-15T01:19:00;97572.17;;;2.93;78.52
37904;BME280;23738;50.422;18.758;2023-03-15T01:21:30;97577.05;;;2.88;78.58
37904;BME280;23738;50.422;18.758;2023-03-15T01:23:59;97579.62;;;2.85;78.42
37904;BME280;23738;50.422;18.758;2023-03-15T01:26:29;97579.92;;;2.84;78.25
37904;BME280;23738;50.422;18.758;2023-03-15T01:28:59;97586.16;;;2.83;78.31
37904;BME280;23738;50.422;18.758;2023-03-15T01:31:29;97592.52;;;2.82;78.22
37904;BME280;23738;50.422;18.758;2023-03-15T01:33:59;97609.23;;;2.80;78.11
37904;BME280;23738;50.422;18.758;2023-03-15T01:36:29;97614.98;;;2.80;78.21
37904;BME280;23738;50.422;18.758;2023-03-15T01:38:59;97619.52;;;2.82;78.47
37904;BME280;23738;50.422;18.758;2023-03-15T01:41:28;97623.20;;;2.83;78.14
37904;BME280;23738;50.422;18.758;2023-03-15T01:43:58;97632.00;;;2.84;78.43
37904;BME280;23738;50.422;18.758;2023-03-15T01:46:30;97634.45;;;2.84;78.32
37904;BME280;23738;50.422;18.758;2023-03-15T01:49:06;97632.71;;;2.83;78.23
37904;BME280;23738;50.422;18.758;2023-03-15T01:51:41;97641.02;;;2.85;78.21
37904;BME280;23738;50.422;18.758;2023-03-15T01:54:16;97642.49;;;2.86;78.28
37904;BME280;23738;50.422;18.758;2023-03-15T01:56:51;97650.73;;;2.84;78.07
37904;BME280;23738;50.422;18.758;2023-03-15T01:59:26;97652.33;;;2.81;77.96
37904;BME280;23738;50.422;18.758;2023-03-15T02:01:57;97659.66;;;2.79;78.25
37904;BME280;23738;50.422;18.758;2023-03-15T02:04:31;97665.23;;;2.77;78.31
37904;BME280;23738;50.422;18.758;2023-03-15T02:07:04;97664.74;;;2.77;78.24
37904;BME280;23738;50.422;18.758;2023-03-15T02:09:39;97657.40;;;2.76;77.97
37904;BME280;23738;50.422;18.758;2023-03-15T02:12:12;97652.73;;;2.72;77.96
37904;BME280;23738;50.422;18.758;2023-03-15T02:14:41;97656.27;;;2.70;77.97
37904;BME280;23738;50.422;18.758;2023-03-15T02:17:12;97661.94;;;2.71;77.92
37904;BME280;23738;50.422;18.758;2023-03-15T02:19:50;97667.16;;;2.72;77.90
37904;BME280;23738;50.422;18.758;2023-03-15T02:22:30;97675.89;;;2.72;77.68
37904;BME280;23738;50.422;18.758;2023-03-15T02:25:11;97676.42;;;2.71;77.74
37904;BME280;23738;50.422;18.758;2023-03-15T02:27:43;97675.35;;;2.69;77.74
37904;BME280;23738;50.422;18.758;2023-03-15T02:30:13;97671.20;;;2.71;77.51
37904;BME280;23738;50.422;18.758;2023-03-15T02:32:43;97668.36;;;2.69;77.59
37904;BME280;23738;50.422;18.758;2023-03-15T02:35:18;97671.59;;;2.67;77.54
37904;BME280;23738;50.422;18.758;2023-03-15T02:37:50;97668.73;;;2.65;77.54
37904;BME280;23738;50.422;18.758;2023-03-15T02:40:22;97675.30;;;2.63;77.44
37904;BME280;23738;50.422;18.758;2023-03-15T02:42:53;97668.66;;;2.65;77.52
37904;BME280;23738;50.422;18.758;2023-03-15T02:45:26;97669.71;;;2.67;77.74
37904;BME280;23738;50.422;18.758;2023-03-15T02:47:57;97672.50;;;2.68;77.57
37904;BME280;23738;50.422;18.758;2023-03-15T02:50:27;97675.77;;;2.67;77.53
37904;BME280;23738;50.422;18.758;2023-03-15T02:52:56;97684.44;;;2.67;77.97
37904;BME280;23738;50.422;18.758;2023-03-15T02:55:26;97692.69;;;2.68;77.79
37904;BME280;23738;50.422;18.758;2023-03-15T02:57:55;97699.33;;;2.71;77.92
37904;BME280;23738;50.422;18.758;2023-03-15T03:00:25;97705.20;;;2.73;77.66
37904;BME280;23738;50.422;18.758;2023-03-15T03:02:55;97701.79;;;2.74;77.50
37904;BME280;23738;50.422;18.758;2023-03-15T03:05:24;97708.10;;;2.76;77.91
37904;BME280;23738;50.422;18.758;2023-03-15T03:07:53;97713.77;;;2.76;77.72
37904;BME280;23738;50.422;18.758;2023-03-15T03:10:23;97723.31;;;2.71;77.94
37904;BME280;23738;50.422;18.758;2023-03-15T03:12:52;97717.77;;;2.64;77.88
37904;BME280;23738;50.422;18.758;2023-03-15T03:15:21;97724.11;;;2.63;77.80
37904;BME280;23738;50.422;18.758;2023-03-15T03:17:51;97729.59;;;2.61;77.80
37904;BME280;23738;50.422;18.758;2023-03-15T03:20:21;97732.09;;;2.62;77.93
37904;BME280;23738;50.422;18.758;2023-03-15T03:22:50;97734.77;;;2.66;77.96
37904;BME280;23738;50.422;18.758;2023-03-15T03:25:23;97734.35;;;2.69;78.01
37904;BME280;23738;50.422;18.758;2023-03-15T03:27:54;97740.90;;;2.71;77.79
37904;BME280;23738;50.422;18.758;2023-03-15T03:30:24;97735.64;;;2.71;77.86
37904;BME280;23738;50.422;18.758;2023-03-15T03:32:53;97738.89;;;2.65;77.64
37904;BME280;23738;50.422;18.758;2023-03-15T03:35:23;97732.89;;;2.63;77.61
37904;BME280;23738;50.422;18.758;2023-03-15T03:37:52;97729.21;;;2.57;77.62
37904;BME280;23738;50.422;18.758;2023-03-15T03:40:21;97732.19;;;2.54;77.86
37904;BME280;23738;50.422;18.758;2023-03-15T03:42:51;97745.09;;;2.53;77.63
37904;BME280;23738;50.422;18.758;2023-03-15T03:45:20;97753.25;;;2.54;77.47
37904;BME280;23738;50.422;18.758;2023-03-15T03:47:49;97761.10;;;2.55;77.68
37904;BME280;23738;50.422;18.758;2023-03-15T03:50:18;97759.14;;;2.57;77.81
37904;BME280;23738;50.422;18.758;2023-03-15T03:52:48;97756.05;;;2.55;77.70
37904;BME280;23738;50.422;18.758;2023-03-15T03:55:17;97763.38;;;2.53;77.41
37904;BME280;23738;50.422;18.758;2023-03-15T03:57:46;97776.09;;;2.51;77.84
37904;BME280;23738;50.422;18.758;2023-03-15T04:00:18;97784.17;;;2.52;77.50
37904;BME280;23738;50.422;18.758;2023-03-15T04:02:47;97788.27;;;2.53;77.64
37904;BME280;23738;50.422;18.758;2023-03-15T04:05:16;97789.96;;;2.53;77.88
37904;BME280;23738;50.422;18.758;2023-03-15T04:07:46;97794.44;;;2.53;77.57
37904;BME280;23738;50.422;18.758;2023-03-15T04:10:15;97793.39;;;2.52;77.79
37904;BME280;23738;50.422;18.758;2023-03-15T04:12:44;97797.36;;;2.49;77.87
37904;BME280;23738;50.422;18.758;2023-03-15T04:15:14;97801.52;;;2.46;77.64
37904;BME280;23738;50.422;18.758;2023-03-15T04:17:43;97795.33;;;2.44;77.86
37904;BME280;23738;50.422;18.758;2023-03-15T04:20:13;97789.53;;;2.44;78.08
37904;BME280;23738;50.422;18.758;2023-03-15T04:22:44;97788.55;;;2.42;77.61
37904;BME280;23738;50.422;18.758;2023-03-15T04:25:16;97793.92;;;2.41;77.81
37904;BME280;23738;50.422;18.758;2023-03-15T04:27:46;97796.62;;;2.38;77.89
37904;BME280;23738;50.422;18.758;2023-03-15T04:30:26;97801.02;;;2.35;77.57
37904;BME280;23738;50.422;18.758;2023-03-15T04:32:56;97803.23;;;2.34;77.61
37904;BME280;23738;50.422;18.758;2023-03-15T04:35:28;97807.13;;;2.34;77.78
37904;BME280;23738;50.422;18.758;2023-03-15T04:37:58;97809.48;;;2.38;77.96
37904;BME280;23738;50.422;18.758;2023-03-15T04:40:28;97811.33;;;2.40;77.88
37904;BME280;23738;50.422;18.758;2023-03-15T04:42:57;97818.52;;;2.41;77.94
37904;BME280;23738;50.422;18.758;2023-03-15T04:45:26;97822.64;;;2.40;77.92
37904;BME280;23738;50.422;18.758;2023-03-15T04:47:56;97824.29;;;2.38;77.86
37904;BME280;23738;50.422;18.758;2023-03-15T04:50:26;97823.69;;;2.34;77.67
37904;BME280;23738;50.422;18.758;2023-03-15T04:52:57;97828.05;;;2.34;77.62
37904;BME280;23738;50.422;18.758;2023-03-15T04:55:27;97828.05;;;2.32;77.59
37904;BME280;23738;50.422;18.758;2023-03-15T04:57:56;97828.49;;;2.29;77.50
37904;BME280;23738;50.422;18.758;2023-03-15T05:00:26;97835.23;;;2.26;77.45
37904;BME280;23738;50.422;18.758;2023-03-15T05:02:55;97840.10;;;2.23;77.63
37904;BME280;23738;50.422;18.758;2023-03-15T05:05:24;97849.68;;;2.23;77.61
37904;BME280;23738;50.422;18.758;2023-03-15T05:07:55;97848.14;;;2.23;77.49
37904;BME280;23738;50.422;18.758;2023-03-15T05:10:24;97853.03;;;2.22;77.50
37904;BME280;23738;50.422;18.758;2023-03-15T05:12:53;97853.67;;;2.20;77.40
37904;BME280;23738;50.422;18.758;2023-03-15T05:15:23;97850.15;;;2.14;77.65
37904;BME280;23738;50.422;18.758;2023-03-15T05:17:52;97846.92;;;2.10;77.47
37904;BME280;23738;50.422;18.758;2023-03-15T05:20:23;97845.48;;;2.10;77.67
37904;BME280;23738;50.422;18.758;2023-03-15T05:22:53;97850.14;;;2.11;77.50
37904;BME280;23738;50.422;18.758;2023-03-15T05:25:22;97856.41;;;2.07;77.52
37904;BME280;23738;50.422;18.758;2023-03-15T05:27:53;97853.63;;;2.03;77.64
37904;BME280;23738;50.422;18.758;2023-03-15T05:30:23;97857.80;;;1.99;77.50
37904;BME280;23738;50.422;18.758;2023-03-15T05:32:52;97860.83;;;1.99;77.66
37904;BME280;23738;50.422;18.758;2023-03-15T05:35:21;97866.66;;;1.98;77.55
37904;BME280;23738;50.422;18.758;2023-03-15T05:37:56;97860.64;;;1.97;77.74
37904;BME280;23738;50.422;18.758;2023-03-15T05:40:26;97863.14;;;2.00;77.67
37904;BME280;23738;50.422;18.758;2023-03-15T05:42:57;97867.77;;;1.99;77.71
37904;BME280;23738;50.422;18.758;2023-03-15T05:45:26;97871.17;;;1.99;77.82
37904;BME280;23738;50.422;18.758;2023-03-15T05:47:56;97877.48;;;1.99;77.54
37904;BME280;23738;50.422;18.758;2023-03-15T05:50:25;97885.05;;;2.03;77.63
37904;BME280;23738;50.422;18.758;2023-03-15T05:52:56;97878.77;;;2.09;77.45
37904;BME280;23738;50.422;18.758;2023-03-15T05:55:25;97881.98;;;2.13;77.56
37904;BME280;23738;50.422;18.758;2023-03-15T05:57:55;97889.40;;;2.16;77.44
37904;BME280;23738;50.422;18.758;2023-03-15T06:00:24;97895.17;;;2.15;77.21
37904;BME280;23738;50.422;18.758;2023-03-15T06:02:54;97895.48;;;2.14;77.60
37904;BME280;23738;50.422;18.758;2023-03-15T06:05:23;97906.98;;;2.18;77.58
37904;BME280;23738;50.422;18.758;2023-03-15T06:07:53;97904.58;;;2.16;77.40
37904;BME280;23738;50.422;18.758;2023-03-15T06:10:22;97907.33;;;2.15;77.46
37904;BME280;23738;50.422;18.758;2023-03-15T06:12:51;97919.20;;;2.16;77.43
37904;BME280;23738;50.422;18.758;2023-03-15T06:15:22;97928.27;;;2.17;77.40
37904;BME280;23738;50.422;18.758;2023-03-15T06:17:51;97937.67;;;2.20;77.62
37904;BME280;23738;50.422;18.758;2023-03-15T06:20:21;97941.65;;;2.19;77.56
37904;BME280;23738;50.422;18.758;2023-03-15T06:22:50;97945.74;;;2.17;77.57
37904;BME280;23738;50.422;18.758;2023-03-15T06:25:19;97949.48;;;2.16;77.75
37904;BME280;23738;50.422;18.758;2023-03-15T06:27:49;97956.63;;;2.17;77.35
37904;BME280;23738;50.422;18.758;2023-03-15T06:30:19;97960.95;;;2.21;77.52
37904;BME280;23738;50.422;18.758;2023-03-15T06:32:48;97960.44;;;2.22;77.32
37904;BME280;23738;50.422;18.758;2023-03-15T06:35:18;97967.16;;;2.21;77.41
37904;BME280;23738;50.422;18.758;2023-03-15T06:37:47;97965.43;;;2.19;77.39
37904;BME280;23738;50.422;18.758;2023-03-15T06:40:17;97972.70;;;2.20;77.33
37904;BME280;23738;50.422;18.758;2023-03-15T06:42:46;97976.71;;;2.21;77.56
37904;BME280;23738;50.422;18.758;2023-03-15T06:45:16;97984.08;;;2.22;77.12
37904;BME280;23738;50.422;18.758;2023-03-15T06:47:45;97988.34;;;2.21;77.30
37904;BME280;23738;50.422;18.758;2023-03-15T06:50:14;97990.32;;;2.20;77.46
37904;BME280;23738;50.422;18.758;2023-03-15T06:52:43;97992.70;;;2.19;77.18
37904;BME280;23738;50.422;18.758;2023-03-15T06:55:13;97996.44;;;2.18;77.41
37904;BME280;23738;50.422;18.758;2023-03-15T06:57:45;97998.73;;;2.20;77.47
37904;BME280;23738;50.422;18.758;2023-03-15T07:00:16;98007.77;;;2.22;77.16
37904;BME280;23738;50.422;18.758;2023-03-15T07:02:45;98009.69;;;2.22;77.18
37904;BME280;23738;50.422;18.758;2023-03-15T07:05:15;98017.95;;;2.24;77.69
37904;BME280;23738;50.422;18.758;2023-03-15T07:07:44;98022.03;;;2.26;77.33
37904;BME280;23738;50.422;18.758;2023-03-15T07:10:14;98029.10;;;2.27;77.27
37904;BME280;23738;50.422;18.758;2023-03-15T07:12:43;98029.27;;;2.29;77.34
37904;BME280;23738;50.422;18.758;2023-03-15T07:15:13;98033.99;;;2.31;76.78
37904;BME280;23738;50.422;18.758;2023-03-15T07:17:42;98033.38;;;2.33;77.14
37904;BME280;23738;50.422;18.758;2023-03-15T07:20:12;98039.13;;;2.34;77.05
37904;BME280;23738;50.422;18.758;2023-03-15T07:22:42;98043.35;;;2.39;77.09
37904;BME280;23738;50.422;18.758;2023-03-15T07:25:13;98045.04;;;2.42;77.05
37904;BME280;23738;50.422;18.758;2023-03-15T07:27:42;98046.55;;;2.46;77.26
37904;BME280;23738;50.422;18.758;2023-03-15T07:30:13;98052.23;;;2.55;77.32
37904;BME280;23738;50.422;18.758;2023-03-15T07:32:43;98061.09;;;2.63;77.13
37904;BME280;23738;50.422;18.758;2023-03-15T07:35:12;98068.38;;;2.65;76.82
37904;BME280;23738;50.422;18.758;2023-03-15T07:37:41;98068.48;;;2.67;76.87
37904;BME280;23738;50.422;18.758;2023-03-15T07:40:13;98064.72;;;2.73;77.12
37904;BME280;23738;50.422;18.758;2023-03-15T07:42:43;98062.73;;;2.80;77.00
37904;BME280;23738;50.422;18.758;2023-03-15T07:45:13;98065.42;;;2.88;77.07
37904;BME280;23738;50.422;18.758;2023-03-15T07:47:42;98075.52;;;2.96;76.58
37904;BME280;23738;50.422;18.758;2023-03-15T07:50:12;98081.46;;;2.97;76.80
37904;BME280;23738;50.422;18.758;2023-03-15T07:52:42;98084.34;;;2.95;76.45
37904;BME280;23738;50.422;18.758;2023-03-15T07:55:12;98082.02;;;2.91;75.90
37904;BME280;23738;50.422;18.758;2023-03-15T07:57:41;98086.42;;;2.88;76.59
37904;BME280;23738;50.422;18.758;2023-03-15T08:00:12;98092.59;;;2.94;76.77
37904;BME280;23738;50.422;18.758;2023-03-15T08:02:42;98089.33;;;2.95;76.12
37904;BME280;23738;50.422;18.758;2023-03-15T08:05:11;98101.67;;;2.97;76.08
37904;BME280;23738;50.422;18.758;2023-03-15T08:07:41;98102.73;;;2.97;75.78
37904;BME280;23738;50.422;18.758;2023-03-15T08:10:11;98105.89;;;2.98;76.08
37904;BME280;23738;50.422;18.758;2023-03-15T08:12:41;98099.70;;;3.01;75.66
37904;BME280;23738;50.422;18.758;2023-03-15T08:15:12;98104.60;;;3.05;75.92
37904;BME280;23738;50.422;18.758;2023-03-15T08:17:41;98106.80;;;3.14;75.85
37904;BME280;23738;50.422;18.758;2023-03-15T08:20:13;98108.27;;;3.22;75.94
37904;BME280;23738;50.422;18.758;2023-03-15T08:22:45;98112.53;;;3.29;75.28
37904;BME280;23738;50.422;18.758;2023-03-15T08:25:17;98111.35;;;3.35;75.75
37904;BME280;23738;50.422;18.758;2023-03-15T08:27:47;98118.02;;;3.43;75.48
37904;BME280;23738;50.422;18.758;2023-03-15T08:30:18;98119.67;;;3.47;74.94
37904;BME280;23738;50.422;18.758;2023-03-15T08:32:49;98121.25;;;3.50;75.50
37904;BME280;23738;50.422;18.758;2023-03-15T08:35:20;98126.20;;;3.56;74.29
37904;BME280;23738;50.422;18.758;2023-03-15T08:37:50;98126.56;;;3.57;74.65
37904;BME280;23738;50.422;18.758;2023-03-15T08:40:20;98129.84;;;3.64;74.70
37904;BME280;23738;50.422;18.758;2023-03-15T08:42:54;98132.51;;;3.74;74.85
37904;BME280;23738;50.422;18.758;2023-03-15T08:45:25;98139.54;;;3.86;74.89
37904;BME280;23738;50.422;18.758;2023-03-15T08:47:58;98142.40;;;3.97;74.54
37904;BME280;23738;50.422;18.758;2023-03-15T08:50:29;98142.05;;;4.04;74.33
37904;BME280;23738;50.422;18.758;2023-03-15T08:52:59;98135.38;;;4.10;74.52
37904;BME280;23738;50.422;18.758;2023-03-15T08:55:28;98136.55;;;4.20;73.81
37904;BME280;23738;50.422;18.758;2023-03-15T08:57:58;98143.31;;;4.25;73.28
37904;BME280;23738;50.422;18.758;2023-03-15T09:00:28;98148.47;;;4.32;73.90
37904;BME280;23738;50.422;18.758;2023-03-15T09:02:57;98153.02;;;4.44;74.03
37904;BME280;23738;50.422;18.758;2023-03-15T09:05:27;98148.92;;;4.54;73.69
37904;BME280;23738;50.422;18.758;2023-03-15T09:07:56;98152.27;;;4.60;71.34
37904;BME280;23738;50.422;18.758;2023-03-15T09:10:27;98153.41;;;4.63;72.21
37904;BME280;23738;50.422;18.758;2023-03-15T09:12:57;98150.48;;;4.66;71.95
37904;BME280;23738;50.422;18.758;2023-03-15T09:15:26;98156.30;;;4.73;72.67
37904;BME280;23738;50.422;18.758;2023-03-15T09:17:56;98156.49;;;4.80;71.90
37904;BME280;23738;50.422;18.758;2023-03-15T09:20:25;98160.95;;;4.86;71.43
37904;BME280;23738;50.422;18.758;2023-03-15T09:22:57;98161.98;;;4.93;71.89
37904;BME280;23738;50.422;18.758;2023-03-15T09:25:26;98161.28;;;5.01;71.39
37904;BME280;23738;50.422;18.758;2023-03-15T09:27:56;98163.41;;;5.04;71.70
37904;BME280;23738;50.422;18.758;2023-03-15T09:30:25;98169.22;;;5.04;71.39
37904;BME280;23738;50.422;18.758;2023-03-15T09:32:56;98169.17;;;5.04;71.23
37904;BME280;23738;50.422;18.758;2023-03-15T09:35:25;98167.09;;;4.99;70.03
37904;BME280;23738;50.422;18.758;2023-03-15T09:37:55;98165.27;;;4.95;70.55
37904;BME280;23738;50.422;18.758;2023-03-15T09:40:26;98166.55;;;4.93;69.68
37904;BME280;23738;50.422;18.758;2023-03-15T09:43:02;98164.02;;;4.89;68.91
37904;BME280;23738;50.422;18.758;2023-03-15T09:45:56;98170.64;;;4.83;69.96
37904;BME280;23738;50.422;18.758;2023-03-15T09:48:33;98168.81;;;4.83;69.33
37904;BME280;23738;50.422;18.758;2023-03-15T09:51:07;98173.98;;;4.82;69.64
37904;BME280;23738;50.422;18.758;2023-03-15T09:53:42;98171.14;;;4.82;69.89
37904;BME280;23738;50.422;18.758;2023-03-15T09:56:23;98174.50;;;4.85;69.54
37904;BME280;23738;50.422;18.758;2023-03-15T09:58:57;98182.05;;;4.89;68.91
37904;BME280;23738;50.422;18.758;2023-03-15T10:01:30;98176.23;;;4.93;69.72
37904;BME280;23738;50.422;18.758;2023-03-15T10:04:03;98172.62;;;4.98;69.67
37904;BME280;23738;50.422;18.758;2023-03-15T10:06:37;98172.19;;;5.04;66.69
37904;BME280;23738;50.422;18.758;2023-03-15T10:09:15;98171.43;;;5.01;65.28
37904;BME280;23738;50.422;18.758;2023-03-15T10:11:52;98164.34;;;4.99;66.30
37904;BME280;23738;50.422;18.758;2023-03-15T10:14:35;98159.73;;;4.98;67.29
37904;BME280;23738;50.422;18.758;2023-03-15T10:17:11;98162.45;;;5.03;67.99
37904;BME280;23738;50.422;18.758;2023-03-15T10:19:47;98161.34;;;5.08;67.55
37904;BME280;23738;50.422;18.758;2023-03-15T10:22:24;98165.73;;;5.11;67.47
37904;BME280;23738;50.422;18.758;2023-03-15T10:24:58;98166.56;;;5.10;66.18
37904;BME280;23738;50.422;18.758;2023-03-15T10:27:33;98172.89;;;5.05;65.25
37904;BME280;23738;50.422;18.758;2023-03-15T10:30:14;98177.52;;;5.04;67.08
37904;BME280;23738;50.422;18.758;2023-03-15T10:32:46;98184.06;;;5.07;65.62
37904;BME280;23738;50.422;18.758;2023-03-15T10:35:19;98187.25;;;5.03;66.27
37904;BME280;23738;50.422;18.758;2023-03-15T10:37:48;98188.88;;;4.99;66.56
37904;BME280;23738;50.422;18.758;2023-03-15T10:40:38;98184.66;;;4.98;66.62
37904;BME280;23738;50.422;18.758;2023-03-15T10:43:17;98188.40;;;5.02;67.64
37904;BME280;23738;50.422;18.758;2023-03-15T10:45:59;98190.48;;;5.05;67.74
37904;BME280;23738;50.422;18.758;2023-03-15T10:48:30;98193.66;;;5.10;67.05
37904;BME280;23738;50.422;18.758;2023-03-15T10:51:05;98195.34;;;5.12;67.26
37904;BME280;23738;50.422;18.758;2023-03-15T10:53:34;98193.66;;;5.10;65.45
37904;BME280;23738;50.422;18.758;2023-03-15T10:56:09;98192.02;;;5.06;66.28
37904;BME280;23738;50.422;18.758;2023-03-15T10:58:45;98190.19;;;5.03;66.09
37904;BME280;23738;50.422;18.758;2023-03-15T11:01:23;98198.38;;;5.04;65.51
37904;BME280;23738;50.422;18.758;2023-03-15T11:04:12;98199.60;;;5.00;64.67
37904;BME280;23738;50.422;18.758;2023-03-15T11:06:45;98203.13;;;4.95;64.49
37904;BME280;23738;50.422;18.758;2023-03-15T11:09:17;98207.70;;;4.92;65.14
37904;BME280;23738;50.422;18.758;2023-03-15T11:11:52;98206.45;;;4.86;64.86
37904;BME280;23738;50.422;18.758;2023-03-15T11:14:23;98212.34;;;4.88;65.28
37904;BME280;23738;50.422;18.758;2023-03-15T11:16:55;98216.77;;;4.86;65.51
37904;BME280;23738;50.422;18.758;2023-03-15T11:19:28;98214.80;;;4.85;66.10
37904;BME280;23738;50.422;18.758;2023-03-15T11:22:01;98214.19;;;4.89;66.58
37904;BME280;23738;50.422;18.758;2023-03-15T11:24:32;98216.70;;;4.93;66.05
37904;BME280;23738;50.422;18.758;2023-03-15T11:27:05;98215.91;;;4.92;66.37
37904;BME280;23738;50.422;18.758;2023-03-15T11:29:40;98215.52;;;4.89;65.71
37904;BME280;23738;50.422;18.758;2023-03-15T11:32:16;98218.98;;;4.88;66.32
37904;BME280;23738;50.422;18.758;2023-03-15T11:34:49;98221.58;;;4.91;65.37
37904;BME280;23738;50.422;18.758;2023-03-15T11:37:24;98222.08;;;4.88;64.90
37904;BME280;23738;50.422;18.758;2023-03-15T11:39:59;98221.94;;;4.83;64.63
37904;BME280;23738;50.422;18.758;2023-03-15T11:42:34;98221.55;;;4.81;64.39
37904;BME280;23738;50.422;18.758;2023-03-15T11:45:15;98217.92;;;4.77;64.84
37904;BME280;23738;50.422;18.758;2023-03-15T11:47:50;98216.19;;;4.77;65.19
37904;BME280;23738;50.422;18.758;2023-03-15T11:50:21;98219.56;;;4.80;65.13
37904;BME280;23738;50.422;18.758;2023-03-15T11:52:51;98221.40;;;4.79;64.22
37904;BME280;23738;50.422;18.758;2023-03-15T11:55:24;98224.14;;;4.79;64.70
37904;BME280;23738;50.422;18.758;2023-03-15T11:57:54;98223.91;;;4.81;65.17
37904;BME280;23738;50.422;18.758;2023-03-15T12:00:51;98226.72;;;4.84;64.96
37904;BME280;23738;50.422;18.758;2023-03-15T12:03:31;98224.66;;;4.87;65.26
37904;BME280;23738;50.422;18.758;2023-03-15T12:06:07;98226.88;;;4.89;65.03
37904;BME280;23738;50.422;18.758;2023-03-15T12:08:43;98227.34;;;4.90;64.50
37904;BME280;23738;50.422;18.758;2023-03-15T12:11:34;98227.54;;;4.88;64.08
37904;BME280;23738;50.422;18.758;2023-03-15T12:14:21;98227.48;;;4.87;64.64
37904;BME280;23738;50.422;18.758;2023-03-15T12:19:40;98226.48;;;4.89;64.50
37904;BME280;23738;50.422;18.758;2023-03-15T12:22:15;98230.71;;;4.89;64.01
37904;BME280;23738;50.422;18.758;2023-03-15T12:24:46;98229.70;;;4.90;64.56
37904;BME280;23738;50.422;18.758;2023-03-15T12:27:18;98227.33;;;4.93;64.79
37904;BME280;23738;50.422;18.758;2023-03-15T12:29:49;98223.41;;;4.96;64.26
37904;BME280;23738;50.422;18.758;2023-03-15T12:32:27;98231.91;;;4.97;63.45
37904;BME280;23738;50.422;18.758;2023-03-15T12:35:02;98238.89;;;4.95;62.83
37904;BME280;23738;50.422;18.758;2023-03-15T12:37:44;98235.57;;;4.94;63.26
37904;BME280;23738;50.422;18.758;2023-03-15T12:40:48;98232.70;;;4.96;62.96
37904;BME280;23738;50.422;18.758;2023-03-15T12:43:35;98228.40;;;4.94;62.82
37904;BME280;23738;50.422;18.758;2023-03-15T12:46:05;98232.30;;;5.01;62.86
37904;BME280;23738;50.422;18.758;2023-03-15T12:48:35;98232.49;;;5.07;62.83
37904;BME280;23738;50.422;18.758;2023-03-15T12:51:08;98231.73;;;5.10;62.49
37904;BME280;23738;50.422;18.758;2023-03-15T12:53:50;98236.54;;;5.10;61.64
37904;BME280;23738;50.422;18.758;2023-03-15T12:56:34;98241.66;;;5.11;62.21
37904;BME280;23738;50.422;18.758;2023-03-15T12:59:14;98244.11;;;5.13;62.98
37904;BME280;23738;50.422;18.758;2023-03-15T13:01:45;98250.01;;;5.18;63.43
37904;BME280;23738;50.422;18.758;2023-03-15T13:04:15;98253.83;;;5.26;63.62
37904;BME280;23738;50.422;18.758;2023-03-15T13:07:02;98251.61;;;5.30;63.18
37904;BME280;23738;50.422;18.758;2023-03-15T13:09:47;98262.96;;;5.31;61.70
37904;BME280;23738;50.422;18.758;2023-03-15T13:12:21;98258.19;;;5.28;62.35
37904;BME280;23738;50.422;18.758;2023-03-15T13:14:57;98255.42;;;5.27;62.91
37904;BME280;23738;50.422;18.758;2023-03-15T13:17:38;98261.30;;;5.32;62.52
37904;BME280;23738;50.422;18.758;2023-03-15T13:20:22;98262.77;;;5.33;61.74
37904;BME280;23738;50.422;18.758;2023-03-15T13:23:05;98261.72;;;5.33;61.97
37904;BME280;23738;50.422;18.758;2023-03-15T13:25:43;98267.29;;;5.33;62.43
37904;BME280;23738;50.422;18.758;2023-03-15T13:28:20;98266.73;;;5.36;61.35